createdAt,value
2022-07-30T00:01:44.061Z,7.45
2022-07-30T00:04:33.703Z,5.35
2022-07-30T00:07:22.427Z,5.88
2022-07-30T00:10:11.819Z,5.15
2022-07-30T00:13:01.818Z,4.53
2022-07-30T00:15:50.644Z,5.13
2022-07-30T00:18:39.255Z,5.15
2022-07-30T00:21:36.182Z,4.75
2022-07-30T00:24:27.635Z,5.38
2022-07-30T00:27:17.628Z,5.78
2022-07-30T00:30:08.995Z,5.10
2022-07-30T00:32:58.408Z,6.63
2022-07-30T00:35:47.207Z,6.17
2022-07-30T00:38:36.181Z,4.77
2022-07-30T00:41:25.350Z,6.53
2022-07-30T00:44:14.140Z,6.03
2022-07-30T00:47:04.512Z,5.13
2022-07-30T00:49:53.388Z,6.00
2022-07-30T00:52:43.141Z,6.50
2022-07-30T00:55:32.232Z,6.43
2022-07-30T00:58:20.777Z,5.95
2022-07-30T01:01:10.791Z,6.47
2022-07-30T01:04:00.966Z,8.88
2022-07-30T01:06:49.609Z,7.50
2022-07-30T01:09:38.249Z,7.65
2022-07-30T01:12:29.033Z,6.85
2022-07-30T01:15:17.824Z,8.52
2022-07-30T01:18:09.048Z,7.13
2022-07-30T01:21:06.529Z,8.02
2022-07-30T01:24:01.322Z,7.40
2022-07-30T01:26:55.229Z,7.47
2022-07-30T01:29:46.801Z,7.32
2022-07-30T01:32:37.850Z,7.07
2022-07-30T01:35:28.205Z,7.57
2022-07-30T01:38:21.723Z,9.27
2022-07-30T01:41:12.511Z,7.97
2022-07-30T01:44:03.623Z,7.82
2022-07-30T01:46:55.130Z,7.47
2022-07-30T01:49:47.194Z,10.32
2022-07-30T01:52:38.492Z,7.97
2022-07-30T01:55:31.718Z,7.57
2022-07-30T01:58:24.425Z,7.80
2022-07-30T02:01:17.787Z,9.13
2022-07-30T02:04:06.635Z,7.57
2022-07-30T02:07:04.214Z,9.80
2022-07-30T02:09:56.977Z,8.17
2022-07-30T02:12:51.663Z,7.30
2022-07-30T02:15:47.147Z,8.47
2022-07-30T02:18:45.076Z,7.80
2022-07-30T02:21:39.738Z,10.03
2022-07-30T02:24:40.019Z,8.90
2022-07-30T02:27:32.213Z,8.17
2022-07-30T02:30:23.507Z,9.52
2022-07-30T02:33:13.918Z,9.13
2022-07-30T02:36:11.187Z,7.70
2022-07-30T02:39:01.020Z,9.25
2022-07-30T02:41:51.432Z,8.83
2022-07-30T02:44:42.931Z,8.50
2022-07-30T02:47:34.130Z,8.33
2022-07-30T02:50:26.296Z,10.53
2022-07-30T02:53:19.769Z,9.93
2022-07-30T02:56:10.919Z,9.27
2022-07-30T02:59:02.930Z,11.10
2022-07-30T03:01:53.154Z,11.87
2022-07-30T03:04:43.673Z,9.80
2022-07-30T03:07:33.512Z,9.33
2022-07-30T03:10:25.736Z,9.13
2022-07-30T03:13:15.314Z,9.57
2022-07-30T03:16:06.150Z,11.23
2022-07-30T03:18:56.288Z,10.63
2022-07-30T03:21:47.115Z,11.57
2022-07-30T03:24:37.702Z,13.13
2022-07-30T03:27:28.693Z,20.03
2022-07-30T03:30:17.574Z,18.88
2022-07-30T03:33:07.347Z,20.47
2022-07-30T03:35:57.071Z,20.90
2022-07-30T03:38:46.395Z,25.17
2022-07-30T03:41:36.867Z,28.45
2022-07-30T03:44:30.020Z,25.10
2022-07-30T03:47:21.952Z,28.73
2022-07-30T03:50:12.445Z,29.92
2022-07-30T03:53:02.255Z,24.80
2022-07-30T03:55:51.343Z,25.50
2022-07-30T03:59:10.355Z,20.67
2022-07-30T04:02:05.999Z,22.13
2022-07-30T04:05:15.050Z,25.70
2022-07-30T04:08:03.754Z,25.05
2022-07-30T04:10:55.227Z,21.88
2022-07-30T04:14:06.884Z,19.80
2022-07-30T04:17:04.821Z,21.17
2022-07-30T04:19:56.180Z,22.85
2022-07-30T04:22:45.969Z,24.25
2022-07-30T04:25:35.009Z,19.85
2022-07-30T04:28:24.300Z,20.85
2022-07-30T04:31:13.367Z,19.35
2022-07-30T04:34:04.810Z,22.05
2022-07-30T04:37:00.410Z,21.30
2022-07-30T04:39:54.040Z,22.73
2022-07-30T04:42:42.762Z,21.02
2022-07-30T04:45:33.441Z,19.92
2022-07-30T04:48:25.981Z,22.90
2022-07-30T04:51:35.370Z,22.67
2022-07-30T04:54:26.990Z,23.15
2022-07-30T04:57:17.070Z,22.48
2022-07-30T05:00:06.944Z,22.10
2022-07-30T05:02:58.982Z,20.98
2022-07-30T05:05:48.321Z,19.92
2022-07-30T05:08:39.870Z,17.88
2022-07-30T05:11:31.042Z,17.85
2022-07-30T05:14:19.910Z,20.40
2022-07-30T05:17:08.582Z,17.95
2022-07-30T05:19:57.462Z,19.92
2022-07-30T05:22:51.136Z,15.60
2022-07-30T05:25:43.850Z,16.77
2022-07-30T05:28:38.642Z,17.55
2022-07-30T05:31:32.981Z,14.45
2022-07-30T05:34:24.803Z,20.23
2022-07-30T05:37:15.407Z,16.65
2022-07-30T05:40:04.565Z,14.73
2022-07-30T05:43:14.924Z,14.38
2022-07-30T05:46:03.552Z,15.15
2022-07-30T05:48:52.390Z,12.20
2022-07-30T05:51:41.491Z,11.30
2022-07-30T05:54:30.396Z,12.50
2022-07-30T05:57:41.936Z,11.30
2022-07-30T06:00:32.108Z,11.35
2022-07-30T06:03:20.680Z,12.93
2022-07-30T06:06:31.359Z,11.13
2022-07-30T06:09:26.397Z,12.50
2022-07-30T06:12:25.427Z,9.30
2022-07-30T06:15:14.372Z,9.05
2022-07-30T06:18:05.332Z,10.15
2022-07-30T06:21:04.560Z,10.50
2022-07-30T06:24:06.058Z,10.23
2022-07-30T06:27:05.449Z,10.30
2022-07-30T06:29:54.311Z,11.23
2022-07-30T06:32:43.542Z,13.18
2022-07-30T06:35:34.075Z,12.30
2022-07-30T06:38:22.678Z,9.93
2022-07-30T06:41:24.013Z,9.60
2022-07-30T06:44:14.729Z,12.05
2022-07-30T06:47:26.051Z,10.02
2022-07-30T06:50:15.605Z,9.60
2022-07-30T06:53:05.864Z,10.43
2022-07-30T06:56:15.276Z,7.93
2022-07-30T06:59:10.705Z,7.07
2022-07-30T07:01:59.301Z,7.95
2022-07-30T07:04:48.716Z,8.00
2022-07-30T07:07:42.323Z,9.40
2022-07-30T07:10:34.605Z,9.43
2022-07-30T07:13:34.109Z,10.63
2022-07-30T07:16:26.915Z,7.22
2022-07-30T07:20:01.385Z,7.07
2022-07-30T07:22:25.914Z,8.23
2022-07-30T07:25:15.934Z,5.13
2022-07-30T07:28:11.266Z,8.77
2022-07-30T07:31:02.247Z,5.78
2022-07-30T07:50:59.663Z,5.10
2022-07-30T07:54:35.348Z,5.13
2022-07-30T08:40:05.994Z,5.80
2022-07-30T08:42:57.573Z,7.38
2022-07-30T08:45:46.960Z,6.85
2022-07-30T08:49:00.641Z,5.35
2022-07-30T08:51:58.310Z,6.55
2022-07-30T08:55:07.302Z,5.18
2022-07-30T08:57:58.073Z,5.28
2022-07-30T09:00:46.775Z,4.43
2022-07-30T09:03:36.701Z,3.72
2022-07-30T09:06:33.053Z,5.55
2022-07-30T09:09:23.426Z,5.72
2022-07-30T09:12:38.427Z,5.55
2022-07-30T09:15:29.924Z,7.18
2022-07-30T09:18:28.362Z,5.03
2022-07-30T09:21:21.061Z,4.20
2022-07-30T09:24:14.510Z,4.20
2022-07-30T09:27:46.403Z,5.57
2022-07-30T09:30:56.681Z,5.03
2022-07-30T09:34:04.682Z,6.15
2022-07-30T09:37:28.591Z,5.75
2022-07-30T09:40:36.903Z,5.82
2022-07-30T09:43:48.540Z,4.00
2022-07-30T09:46:58.597Z,5.57
2022-07-30T09:50:07.365Z,6.47
2022-07-30T09:52:56.617Z,6.53
2022-07-30T09:55:47.073Z,5.80
2022-07-30T09:58:51.357Z,3.72
2022-07-30T10:01:55.020Z,6.07
2022-07-30T10:05:15.688Z,6.45
2022-07-30T10:08:09.145Z,3.15
2022-07-30T10:11:09.532Z,4.82
2022-07-30T10:14:00.208Z,4.18
2022-07-30T10:16:51.685Z,6.90
2022-07-30T10:19:41.923Z,4.85
2022-07-30T10:22:55.859Z,5.32
2022-07-30T10:25:57.145Z,6.00
2022-07-30T10:29:06.062Z,6.00
2022-07-30T10:31:54.856Z,3.75
2022-07-30T10:34:44.085Z,6.38
2022-07-30T10:37:34.423Z,3.53
2022-07-30T10:40:31.762Z,3.65
2022-07-30T10:44:00.590Z,4.00
2022-07-30T10:47:40.250Z,4.90
2022-07-30T10:50:33.790Z,4.72
2022-07-30T10:53:39.791Z,3.78
2022-07-30T11:50:00.160Z,3.72
2022-07-30T11:53:40.674Z,5.35
2022-07-30T11:56:29.327Z,3.53
2022-07-30T11:59:18.242Z,4.20
2022-07-30T12:02:07.033Z,3.58
2022-07-30T12:22:36.045Z,1.65
2022-07-30T12:30:29.435Z,3.33
2022-07-30T12:38:07.999Z,1.88
2022-07-30T12:40:58.910Z,5.70
2022-07-30T12:43:50.315Z,4.53
2022-07-30T12:46:41.190Z,3.08
2022-07-30T12:55:40.767Z,2.53
2022-07-30T12:58:38.311Z,3.42
2022-07-30T13:01:42.853Z,2.28
2022-07-30T13:20:30.196Z,3.50
2022-07-30T13:23:21.651Z,2.53
2022-07-30T13:26:36.743Z,2.90
2022-07-30T13:29:25.412Z,2.70
2022-07-30T13:33:06.582Z,2.42
2022-07-30T13:35:56.530Z,5.78
2022-07-30T13:38:45.411Z,3.05
2022-07-30T13:41:50.859Z,4.90
2022-07-30T13:44:39.439Z,1.95
2022-07-30T13:48:19.559Z,2.00
2022-07-30T13:51:09.731Z,4.07
2022-07-30T13:54:25.861Z,4.97
2022-07-30T13:57:14.635Z,2.92
2022-07-30T14:27:26.861Z,3.47
2022-07-30T14:31:07.886Z,2.22
2022-07-30T14:33:57.346Z,2.17
2022-07-30T14:36:46.369Z,4.82
2022-07-30T14:39:35.715Z,7.03
2022-07-30T14:42:25.258Z,3.00
2022-07-30T14:45:15.447Z,3.03
2022-07-30T14:48:04.006Z,2.10
2022-07-30T14:51:12.857Z,4.25
2022-07-30T14:54:52.200Z,5.20
2022-07-30T14:57:40.872Z,4.60
2022-07-30T15:00:35.605Z,3.67
2022-07-30T15:11:12.979Z,3.15
2022-07-30T15:14:02.043Z,5.53
2022-07-30T15:17:43.623Z,3.30
2022-07-30T15:20:33.663Z,2.03
2022-07-30T15:23:22.389Z,3.40
2022-07-30T15:26:11.642Z,2.65
2022-07-30T15:29:50.719Z,4.25
2022-07-30T15:32:39.904Z,2.20
2022-07-30T15:35:48.671Z,2.95
2022-07-30T15:38:39.329Z,1.52
2022-07-30T15:53:09.688Z,2.30
2022-07-30T15:56:01.201Z,3.97
2022-07-30T15:59:19.003Z,1.73
2022-07-30T16:02:08.575Z,3.30
2022-07-30T16:27:18.299Z,2.97
2022-07-30T16:30:10.650Z,3.00
2022-07-30T20:00:15.530Z,2.63
2022-07-30T20:03:14.636Z,2.70
